Time;durP1;ratioP1;P1;durP2;ratioP2;P2;SDS_P1;SDS_P2;PMS_P1;PMS_P2;Temp;Humidity;BMP_temperature;BMP_pressure;BME280_temperature;BME280_humidity;BME280_pressure;Samples;Min_cycle;Max_cycle;Signal;HPM_P1;HPM_P2
2023/01/15 00:01:30;;;;;;;4.97;1.33;;;;;;;4.97;100.00;99042.56;5016327;28;20267;-44
2023/01/15 00:03:58;;;;;;;7.50;1.58;;;;;;;4.97;100.00;99054.03;5019785;28;20173;-48
2023/01/15 00:06:25;;;;;;;5.68;1.27;;;;;;;4.99;100.00;99044.22;5016923;28;20288;-41
2023/01/15 00:08:51;;;;;;;10.27;1.60;;;;;;;5.00;100.00;99031.78;5024427;28;20211;-43
2023/01/15 00:11:18;;;;;;;10.95;1.40;;;;;;;4.99;100.00;99032.75;5026115;28;20180;-41
2023/01/15 00:13:44;;;;;;;12.20;1.88;;;;;;;4.97;100.00;99040.75;5030336;28;20168;-42
2023/01/15 00:16:15;;;;;;;8.82;1.25;;;;;;;4.97;100.00;99024.84;5019014;28;20637;-42
2023/01/15 00:18:41;;;;;;;11.40;1.75;;;;;;;5.03;100.00;99036.94;5025011;28;20178;-41
2023/01/15 00:21:10;;;;;;;12.38;1.80;;;;;;;5.07;100.00;99038.53;5017808;28;20526;-43
2023/01/15 00:29:06;;;;;;;9.10;1.70;;;;;;;5.07;100.00;99020.84;5018993;28;20189;-47
2023/01/15 00:31:34;;;;;;;9.93;1.83;;;;;;;5.05;100.00;99035.97;5030183;28;20257;-49
2023/01/15 00:34:00;;;;;;;8.70;1.73;;;;;;;5.05;100.00;99037.75;5024010;28;20238;-48
2023/01/15 00:36:26;;;;;;;11.23;1.45;;;;;;;5.11;100.00;99022.41;5013343;28;20719;-46
2023/01/15 00:38:51;;;;;;;13.63;1.88;;;;;;;5.07;100.00;99028.81;5018811;28;20316;-46
2023/01/15 00:41:18;;;;;;;8.95;1.38;;;;;;;5.10;100.00;99028.66;5022239;28;20197;-47
2023/01/15 00:43:45;;;;;;;11.07;1.90;;;;;;;5.12;100.00;99033.91;5018986;28;20848;-47
2023/01/15 00:46:12;;;;;;;10.05;1.77;;;;;;;5.15;100.00;99031.09;5028889;28;20199;-46
2023/01/15 00:48:38;;;;;;;9.38;1.77;;;;;;;5.06;100.00;99024.41;5022384;28;20703;-46
2023/01/15 00:51:04;;;;;;;10.85;2.33;;;;;;;5.09;100.00;99021.59;5023755;28;20177;-46
2023/01/15 00:53:30;;;;;;;10.38;1.70;;;;;;;5.12;100.00;99020.63;5018557;28;20690;-45
2023/01/15 00:55:55;;;;;;;8.10;1.45;;;;;;;5.09;100.00;99016.31;5014423;28;20456;-48
2023/01/15 00:58:21;;;;;;;10.13;1.83;;;;;;;5.08;100.00;99030.53;5019117;28;20594;-49
2023/01/15 01:00:53;;;;;;;10.20;1.48;;;;;;;5.09;100.00;99034.03;5037026;28;20275;-47
2023/01/15 01:03:19;;;;;;;10.85;1.58;;;;;;;5.13;100.00;99038.28;5016944;28;20260;-47
2023/01/15 01:05:44;;;;;;;8.18;1.80;;;;;;;5.09;100.00;99037.53;5020642;28;20240;-46
2023/01/15 01:08:10;;;;;;;6.78;1.60;;;;;;;5.06;100.00;99045.66;5016370;28;20200;-46
2023/01/15 01:10:35;;;;;;;9.63;2.00;;;;;;;5.07;100.00;99049.16;5021985;28;20205;-47
2023/01/15 01:13:01;;;;;;;6.28;1.30;;;;;;;5.05;100.00;99038.63;5020384;28;20180;-46
2023/01/15 01:15:26;;;;;;;9.43;1.98;;;;;;;5.02;100.00;99046.72;5021282;28;20197;-46
2023/01/15 01:17:52;;;;;;;9.52;1.60;;;;;;;5.05;100.00;99049.25;5022149;28;20188;-47
2023/01/15 01:20:17;;;;;;;7.60;1.25;;;;;;;5.09;100.00;99058.78;5025148;28;20303;-47
2023/01/15 01:22:47;;;;;;;7.38;1.33;;;;;;;5.05;100.00;99056.31;5021752;28;20185;-47
2023/01/15 01:25:13;;;;;;;6.93;1.33;;;;;;;5.04;100.00;99055.47;5018266;28;20204;-46
2023/01/15 01:27:38;;;;;;;6.00;1.52;;;;;;;5.09;100.00;99076.50;5025065;28;20183;-47
2023/01/15 01:30:04;;;;;;;8.35;1.30;;;;;;;5.03;100.00;99068.81;5016307;28;20208;-47
2023/01/15 01:32:31;;;;;;;9.57;1.42;;;;;;;5.09;100.00;99066.72;5018265;28;20173;-46
2023/01/15 01:34:57;;;;;;;14.27;1.63;;;;;;;5.05;100.00;99065.19;5017398;28;20295;-45
2023/01/15 01:37:22;;;;;;;7.18;1.42;;;;;;;5.02;100.00;99065.28;5020750;28;20180;-44
2023/01/15 01:39:48;;;;;;;6.70;1.30;;;;;;;5.03;100.00;99074.09;5026633;28;20168;-45
2023/01/15 01:42:16;;;;;;;3.97;1.20;;;;;;;5.05;100.00;99066.94;5025435;28;20198;-46
2023/01/15 01:44:41;;;;;;;7.78;1.38;;;;;;;5.00;100.00;99085.72;5015759;28;20226;-46
2023/01/15 01:47:14;;;;;;;5.20;1.20;;;;;;;4.97;100.00;99069.09;5026362;28;20176;-45
2023/01/15 01:49:42;;;;;;;7.38;1.27;;;;;;;4.95;100.00;99072.66;5016326;28;20197;-45
2023/01/15 01:52:16;;;;;;;7.15;1.10;;;;;;;4.91;100.00;99079.03;5017928;28;20168;-46
2023/01/15 01:54:45;;;;;;;6.22;1.25;;;;;;;4.91;100.00;99081.69;5013211;28;20204;-49
2023/01/15 01:57:11;;;;;;;4.80;1.25;;;;;;;4.95;100.00;99077.13;5022564;28;20567;-46
2023/01/15 01:59:37;;;;;;;9.35;1.27;;;;;;;4.92;100.00;99072.81;5026919;28;20188;-45
2023/01/15 02:02:03;;;;;;;4.88;1.48;;;;;;;4.94;100.00;99078.03;5018256;28;20180;-47
2023/01/15 02:04:30;;;;;;;7.82;1.42;;;;;;;4.90;100.00;99072.00;5016016;28;20177;-46
2023/01/15 02:06:57;;;;;;;7.07;1.60;;;;;;;5.00;100.00;99087.53;5023864;28;20184;-46
2023/01/15 02:09:23;;;;;;;7.35;1.35;;;;;;;5.01;100.00;99086.56;5018893;28;20200;-47
2023/01/15 02:11:54;;;;;;;9.75;1.67;;;;;;;4.99;100.00;99078.72;5003602;28;20191;-46
2023/01/15 02:14:28;;;;;;;6.47;1.40;;;;;;;5.02;100.00;99089.19;5017861;28;20180;-47
2023/01/15 02:17:12;;;;;;;7.47;1.40;;;;;;;5.01;100.00;99078.63;5027972;28;20223;-46
2023/01/15 02:19:49;;;;;;;6.72;1.08;;;;;;;5.03;100.00;99084.72;5020469;28;20194;-46
2023/01/15 02:22:24;;;;;;;6.00;1.73;;;;;;;5.05;100.00;99072.25;5017280;28;20184;-48
2023/01/15 02:25:17;;;;;;;6.70;1.35;;;;;;;5.01;100.00;99068.88;5024779;28;20205;-48
2023/01/15 02:27:50;;;;;;;5.43;0.95;;;;;;;5.03;100.00;99066.16;5025255;28;20172;-46
2023/01/15 02:30:31;;;;;;;4.13;1.17;;;;;;;5.09;100.00;99066.72;5026469;28;20212;-48
2023/01/15 02:33:11;;;;;;;5.57;1.48;;;;;;;5.09;100.00;99060.56;5033701;28;20188;-46
2023/01/15 02:35:42;;;;;;;9.07;1.23;;;;;;;5.05;100.00;99065.19;5016260;28;20239;-46
2023/01/15 02:38:15;;;;;;;5.80;1.60;;;;;;;5.05;100.00;99072.25;5019778;28;20212;-47
2023/01/15 02:40:46;;;;;;;8.45;1.88;;;;;;;5.01;100.00;99074.19;5018075;28;20216;-48
2023/01/15 02:43:14;;;;;;;9.10;1.58;;;;;;;5.02;100.00;99078.56;5026658;28;20562;-47
2023/01/15 02:45:42;;;;;;;9.40;1.38;;;;;;;5.04;100.00;99065.22;5028667;28;20558;-47
2023/01/15 02:48:13;;;;;;;10.43;1.35;;;;;;;5.05;100.00;99069.59;5019966;28;20227;-48
2023/01/15 02:50:44;;;;;;;6.60;1.55;;;;;;;5.04;100.00;99055.47;5030123;28;20284;-47
2023/01/15 02:53:16;;;;;;;6.88;1.50;;;;;;;5.03;100.00;99069.69;5021327;28;20278;-47
2023/01/15 02:55:45;;;;;;;5.53;1.80;;;;;;;5.06;100.00;99066.88;5011561;28;20227;-45
2023/01/15 02:58:19;;;;;;;6.10;1.38;;;;;;;5.11;100.00;99071.97;5020350;28;20250;-46
2023/01/15 03:00:50;;;;;;;5.22;1.20;;;;;;;5.16;100.00;99072.66;5027564;28;20193;-48
2023/01/15 03:03:24;;;;;;;8.38;1.60;;;;;;;5.10;100.00;99062.31;5019700;28;20181;-46
2023/01/15 03:06:08;;;;;;;6.18;1.08;;;;;;;5.12;100.00;99069.28;5015920;28;20205;-47
2023/01/15 03:08:34;;;;;;;8.60;1.55;;;;;;;5.13;100.00;99064.81;5016551;28;20184;-48
2023/01/15 03:11:08;;;;;;;7.05;1.38;;;;;;;5.20;100.00;99060.94;5018373;28;20168;-47
2023/01/15 03:13:51;;;;;;;6.93;1.30;;;;;;;5.11;100.00;99051.59;5012744;28;20194;-47
2023/01/15 03:16:38;;;;;;;5.85;1.10;;;;;;;5.08;100.00;99067.69;5027527;28;20242;-48
2023/01/15 03:19:28;;;;;;;6.43;1.20;;;;;;;5.10;100.00;99051.69;5017926;28;20219;-45
2023/01/15 03:21:58;;;;;;;6.50;1.63;;;;;;;5.10;100.00;99057.00;5029871;28;20223;-45
2023/01/15 03:24:34;;;;;;;9.75;1.65;;;;;;;5.13;100.00;99054.19;5019843;28;20195;-47
2023/01/15 03:27:02;;;;;;;4.75;1.10;;;;;;;5.09;100.00;99047.31;5026277;28;20183;-45
2023/01/15 03:29:32;;;;;;;6.90;1.17;;;;;;;5.05;100.00;99054.56;5027014;28;20240;-46
2023/01/15 03:31:59;;;;;;;8.55;1.60;;;;;;;5.05;100.00;99045.72;5018215;28;20184;-48
2023/01/15 03:34:32;;;;;;;8.43;1.90;;;;;;;5.04;100.00;99033.38;5008604;28;20196;-46
2023/01/15 03:36:58;;;;;;;8.45;1.63;;;;;;;5.02;100.00;99022.81;5017243;28;20196;-47
2023/01/15 03:39:26;;;;;;;6.68;1.42;;;;;;;5.09;100.00;99020.75;5018301;28;20283;-46
2023/01/15 03:42:18;;;;;;;12.00;1.50;;;;;;;5.03;100.00;99005.09;5014735;28;20192;-48
2023/01/15 03:45:18;;;;;;;7.43;1.38;;;;;;;5.03;100.00;99010.41;5015966;28;20290;-48
2023/01/15 03:47:44;;;;;;;9.45;1.70;;;;;;;5.07;100.00;99014.66;4977033;28;20199;-46
2023/01/15 03:50:31;;;;;;;8.70;1.05;;;;;;;5.01;100.00;99009.63;5019344;28;20212;-47
2023/01/15 03:53:10;;;;;;;11.52;2.47;;;;;;;5.01;100.00;99012.25;5032342;28;20195;-47
2023/01/15 03:55:53;;;;;;;6.88;1.83;;;;;;;5.03;100.00;99002.44;5016713;28;20640;-46
2023/01/15 03:58:45;;;;;;;7.40;1.38;;;;;;;5.00;100.00;99005.25;5021787;28;20222;-46
2023/01/15 04:01:20;;;;;;;6.65;1.48;;;;;;;4.91;100.00;98998.56;5021998;28;20187;-47
2023/01/15 04:03:49;;;;;;;10.15;1.48;;;;;;;4.93;100.00;99009.97;5030638;28;20817;-49
2023/01/15 04:06:17;;;;;;;7.70;1.48;;;;;;;4.92;100.00;99008.25;5028374;28;20638;-48
2023/01/15 04:08:45;;;;;;;7.95;1.60;;;;;;;4.94;100.00;98996.66;5018571;28;20231;-46
2023/01/15 04:11:11;;;;;;;4.13;1.13;;;;;;;4.93;100.00;98997.56;5028322;28;20188;-48
2023/01/15 04:13:42;;;;;;;5.40;1.33;;;;;;;4.91;100.00;99006.53;5017490;28;20189;-46
2023/01/15 04:16:26;;;;;;;5.88;1.15;;;;;;;4.92;100.00;99003.81;5021369;28;20208;-49
2023/01/15 04:18:52;;;;;;;7.88;1.98;;;;;;;4.90;100.00;99010.97;5018729;28;20226;-46
2023/01/15 04:21:18;;;;;;;8.70;1.73;;;;;;;4.91;100.00;99001.22;5028736;28;20189;-49
2023/01/15 04:23:44;;;;;;;7.10;1.40;;;;;;;4.90;100.00;98987.09;5020492;28;20191;-48
2023/01/15 04:26:11;;;;;;;8.32;1.67;;;;;;;4.87;100.00;98989.00;5029154;28;20322;-46
2023/01/15 04:28:36;;;;;;;4.75;1.40;;;;;;;4.86;100.00;98993.47;5027393;28;20244;-47
2023/01/15 04:31:02;;;;;;;9.13;1.60;;;;;;;4.94;100.00;98988.69;5021835;28;20189;-47
2023/01/15 04:33:28;;;;;;;12.38;1.67;;;;;;;4.90;100.00;98994.19;5017469;28;20299;-47
2023/01/15 04:35:53;;;;;;;9.57;1.80;;;;;;;4.97;100.00;98992.97;5014659;28;20308;-47
2023/01/15 04:38:19;;;;;;;7.95;1.60;;;;;;;5.02;100.00;98993.63;5021976;28;20561;-46
2023/01/15 04:46:12;;;;;;;7.20;1.63;;;;;;;4.94;100.00;98995.75;5021809;28;20635;-46
2023/01/15 04:48:39;;;;;;;12.55;2.15;;;;;;;4.87;100.00;98975.75;5024023;28;20274;-46
2023/01/15 04:51:06;;;;;;;7.72;1.60;;;;;;;4.89;100.00;98972.09;5022632;28;20196;-46
2023/01/15 04:53:32;;;;;;;7.85;1.40;;;;;;;4.85;100.00;98969.63;5014537;28;20189;-46
2023/01/15 04:56:03;;;;;;;13.02;2.05;;;;;;;4.86;100.00;98966.94;5021247;28;20713;-46
2023/01/15 04:58:29;;;;;;;9.93;1.70;;;;;;;4.87;100.00;98975.75;5029740;28;20267;-46
2023/01/15 05:00:54;;;;;;;6.65;1.60;;;;;;;4.83;100.00;98971.50;5015550;28;20260;-47
2023/01/15 05:03:20;;;;;;;10.75;1.95;;;;;;;4.83;100.00;98977.69;5022280;28;20658;-45
2023/01/15 05:05:45;;;;;;;14.25;2.15;;;;;;;4.91;100.00;98972.03;5019426;28;20224;-48
2023/01/15 05:08:11;;;;;;;11.57;2.00;;;;;;;4.85;100.00;98978.47;5020563;28;20184;-47
2023/01/15 05:10:36;;;;;;;10.50;1.70;;;;;;;4.81;100.00;98976.91;5019442;28;20759;-47
2023/01/15 05:13:02;;;;;;;8.38;2.05;;;;;;;4.82;100.00;98975.94;5025689;28;20271;-48
2023/01/15 05:15:27;;;;;;;7.72;2.03;;;;;;;4.89;100.00;98971.22;5026319;28;20278;-47
2023/01/15 05:17:53;;;;;;;7.65;1.55;;;;;;;4.85;100.00;98970.50;5018103;28;20180;-46
2023/01/15 05:20:18;;;;;;;8.52;1.65;;;;;;;4.80;100.00;98966.34;5023782;28;20191;-46
2023/01/15 05:22:44;;;;;;;11.13;1.83;;;;;;;4.80;100.00;98963.69;5016792;28;20280;-47
2023/01/15 05:25:09;;;;;;;7.90;1.48;;;;;;;4.79;100.00;98969.91;5020492;28;20265;-47
2023/01/15 05:27:35;;;;;;;7.93;1.92;;;;;;;4.79;100.00;98969.91;5022985;28;20178;-46
2023/01/15 05:30:00;;;;;;;7.93;1.90;;;;;;;4.81;100.00;98981.31;5018375;28;20274;-46
2023/01/15 05:32:26;;;;;;;9.45;1.77;;;;;;;4.79;100.00;98967.25;5017596;28;20199;-47
2023/01/15 05:34:51;;;;;;;9.90;2.03;;;;;;;4.76;100.00;98978.88;5026171;28;20242;-47
2023/01/15 05:37:17;;;;;;;13.10;1.70;;;;;;;4.84;100.00;98965.28;5023086;28;20184;-46
2023/01/15 05:39:42;;;;;;;8.10;1.63;;;;;;;4.76;100.00;98965.59;5015632;28;20227;-46
2023/01/15 05:42:08;;;;;;;8.95;1.95;;;;;;;4.71;100.00;98971.13;5019078;28;20194;-46
2023/01/15 05:44:33;;;;;;;11.20;2.13;;;;;;;4.71;100.00;98978.22;5019332;28;20271;-45
2023/01/15 05:47:07;;;;;;;8.00;1.80;;;;;;;4.77;100.00;98964.69;5018359;28;20202;-47
2023/01/15 05:49:33;;;;;;;12.02;1.85;;;;;;;4.71;100.00;98970.25;5025792;28;20223;-47
2023/01/15 05:52:00;;;;;;;9.13;1.70;;;;;;;4.67;100.00;98977.47;5025886;28;20192;-46
2023/01/15 05:54:30;;;;;;;9.13;1.95;;;;;;;4.70;100.00;98979.13;5019966;28;20180;-46
2023/01/15 05:56:56;;;;;;;6.85;1.92;;;;;;;4.69;100.00;98972.97;5019684;28;20207;-47
2023/01/15 05:59:24;;;;;;;8.40;2.08;;;;;;;4.73;100.00;98971.91;5021110;28;20271;-47
2023/01/15 06:01:51;;;;;;;12.93;1.80;;;;;;;4.68;100.00;98970.38;5025415;28;20611;-46
2023/01/15 06:04:19;;;;;;;10.32;2.10;;;;;;;4.68;100.00;98975.69;5020589;28;20283;-47
2023/01/15 06:06:46;;;;;;;13.23;2.50;;;;;;;4.71;100.00;98975.56;5024404;28;20187;-46
2023/01/15 06:09:12;;;;;;;9.23;1.70;;;;;;;4.78;100.00;98984.97;5023068;28;20687;-46
2023/01/15 06:11:38;;;;;;;9.10;2.00;;;;;;;4.82;100.00;98983.06;5017342;28;20361;-45
2023/01/15 06:14:04;;;;;;;10.25;2.15;;;;;;;4.85;100.00;98974.94;5018566;28;20275;-46
2023/01/15 06:16:29;;;;;;;12.68;2.20;;;;;;;4.83;100.00;98979.47;5025694;28;20235;-46
2023/01/15 06:18:59;;;;;;;12.90;1.85;;;;;;;4.87;100.00;98970.44;5021614;28;20193;-45
2023/01/15 06:21:24;;;;;;;11.30;2.03;;;;;;;4.87;100.00;98971.28;5018650;28;20253;-45
2023/01/15 06:23:53;;;;;;;7.78;1.60;;;;;;;4.78;100.00;98953.13;5021966;28;20258;-46
2023/01/15 06:26:18;;;;;;;14.48;2.58;;;;;;;4.86;100.00;98976.69;5013057;28;20224;-47
2023/01/15 06:28:45;;;;;;;15.45;2.60;;;;;;;4.83;100.00;98977.69;5025259;28;20645;-46
2023/01/15 06:31:13;;;;;;;14.25;2.22;;;;;;;4.88;100.00;98964.22;5019240;28;20189;-48
2023/01/15 06:33:38;;;;;;;9.23;1.98;;;;;;;4.90;100.00;98965.88;5013839;28;20193;-45
2023/01/15 06:36:06;;;;;;;9.73;1.70;;;;;;;4.93;100.00;98970.16;5018469;28;20210;-45
2023/01/15 06:38:32;;;;;;;19.30;2.13;;;;;;;4.94;100.00;98975.41;5017516;28;20196;-44
2023/01/15 06:41:02;;;;;;;8.93;1.70;;;;;;;4.85;100.00;98970.50;5017614;28;20552;-45
2023/01/15 06:48:56;;;;;;;10.40;2.47;;;;;;;4.90;100.00;98960.56;5024277;28;20188;-44
2023/01/15 06:51:23;;;;;;;12.10;2.00;;;;;;;4.93;100.00;98967.50;5019139;28;20199;-45
2023/01/15 06:53:48;;;;;;;9.68;1.77;;;;;;;4.96;100.00;98962.06;5023539;28;20192;-47
2023/01/15 06:56:14;;;;;;;13.02;1.92;;;;;;;4.99;100.00;98966.38;5017428;28;20290;-46
2023/01/15 06:58:41;;;;;;;11.93;2.72;;;;;;;4.98;100.00;98957.53;5025122;28;20204;-44
2023/01/15 07:01:12;;;;;;;10.15;2.28;;;;;;;4.99;100.00;98950.47;5019252;28;20189;-45
2023/01/15 07:03:38;;;;;;;9.52;2.22;;;;;;;5.00;100.00;98928.28;5016858;28;20193;-45
2023/01/15 07:06:09;;;;;;;12.65;2.38;;;;;;;4.96;100.00;98956.75;5014847;28;20827;-44
2023/01/15 07:08:35;;;;;;;10.70;2.58;;;;;;;4.97;100.00;98939.06;5018421;28;20190;-46
2023/01/15 07:11:05;;;;;;;5.75;2.13;;;;;;;4.92;100.00;98957.84;5018026;28;20291;-46
2023/01/15 07:13:31;;;;;;;10.77;2.25;;;;;;;4.95;100.00;98947.94;5011351;28;20610;-46
2023/01/15 07:15:59;;;;;;;7.90;2.25;;;;;;;5.03;100.00;98941.41;5010257;28;20226;-47
2023/01/15 07:18:25;;;;;;;11.63;2.40;;;;;;;4.98;100.00;98954.88;5018401;28;20184;-44
2023/01/15 07:20:56;;;;;;;10.18;3.03;;;;;;;4.97;100.00;98926.63;5012635;28;20180;-45
2023/01/15 07:23:26;;;;;;;6.28;1.75;;;;;;;4.94;100.00;98943.56;5018370;28;20549;-44
2023/01/15 07:25:52;;;;;;;11.80;2.38;;;;;;;4.93;100.00;98956.91;5015946;28;20205;-46
2023/01/15 07:28:19;;;;;;;10.93;2.28;;;;;;;4.86;100.00;98932.44;5019397;28;20279;-46
2023/01/15 07:30:45;;;;;;;11.88;2.15;;;;;;;4.90;100.00;98952.59;5016306;28;20200;-44
2023/01/15 07:33:11;;;;;;;11.95;3.25;;;;;;;4.91;100.00;98951.66;5025706;28;20207;-45
2023/01/15 07:35:37;;;;;;;8.50;1.98;;;;;;;4.92;100.00;98940.13;5021745;28;20219;-44
2023/01/15 07:38:02;;;;;;;8.65;1.80;;;;;;;4.94;99.64;98948.00;5019516;28;20206;-46
2023/01/15 07:40:28;;;;;;;10.52;1.92;;;;;;;4.92;99.57;98933.97;5014176;28;20212;-44
2023/01/15 07:51:09;;;;;;;8.10;1.67;;;;;;;4.85;97.99;98936.00;5019440;28;20242;-48
2023/01/15 07:53:34;;;;;;;11.82;2.28;;;;;;;4.87;97.50;98926.19;5015498;28;20295;-45
2023/01/15 07:56:00;;;;;;;10.73;2.17;;;;;;;4.86;97.36;98945.69;5019794;28;20200;-46
2023/01/15 07:58:26;;;;;;;12.18;2.35;;;;;;;4.82;96.95;98928.19;5019667;28;20191;-46
2023/01/15 08:00:52;;;;;;;12.55;2.13;;;;;;;4.90;97.03;98941.97;5021005;28;20580;-48
2023/01/15 08:03:17;;;;;;;14.40;2.55;;;;;;;4.83;96.49;98940.53;5022689;28;20235;-47
2023/01/15 08:05:43;;;;;;;8.98;1.88;;;;;;;4.92;96.66;98945.44;5013563;28;20263;-44
2023/01/15 08:08:16;;;;;;;8.40;1.73;;;;;;;4.86;96.36;98950.16;5014092;28;20250;-45
2023/01/15 08:16:11;;;;;;;14.55;2.13;;;;;;;4.85;95.76;98933.34;5016637;28;20216;-47
2023/01/15 08:18:37;;;;;;;11.25;1.83;;;;;;;4.84;95.66;98930.78;5018496;28;20197;-45
2023/01/15 08:21:03;;;;;;;11.07;2.35;;;;;;;4.94;95.41;98937.38;5014951;28;20702;-47
2023/01/15 08:23:29;;;;;;;12.10;2.15;;;;;;;4.89;94.79;98932.28;5014762;28;20349;-47
2023/01/15 08:25:58;;;;;;;9.43;1.52;;;;;;;4.88;94.69;98925.25;5021362;28;20715;-48
2023/01/15 08:28:24;;;;;;;10.30;1.77;;;;;;;4.93;94.32;98925.06;5022401;28;20655;-46
2023/01/15 08:30:49;;;;;;;11.98;1.90;;;;;;;4.91;93.88;98917.16;5021747;28;20222;-45
2023/01/15 08:33:15;;;;;;;9.43;2.15;;;;;;;5.01;93.62;98925.56;5023059;28;20541;-45
2023/01/15 08:35:40;;;;;;;5.57;1.73;;;;;;;5.02;93.20;98923.78;5023726;28;20216;-47
2023/01/15 08:38:07;;;;;;;10.95;2.15;;;;;;;5.06;93.25;98928.00;5018360;28;20577;-46
2023/01/15 08:40:35;;;;;;;14.07;2.42;;;;;;;5.09;93.29;98935.81;5015913;28;20284;-45
2023/01/15 08:43:01;;;;;;;8.65;2.13;;;;;;;5.06;92.88;98934.16;5022969;28;20176;-47
2023/01/15 08:45:26;;;;;;;12.93;2.63;;;;;;;5.04;92.83;98935.19;5020611;28;20631;-46
2023/01/15 08:47:59;;;;;;;7.03;1.92;;;;;;;5.10;92.59;98916.31;5028526;28;20639;-46
2023/01/15 08:50:24;;;;;;;10.60;2.00;;;;;;;5.08;92.25;98932.31;5023007;28;20938;-44
2023/01/15 08:52:50;;;;;;;8.25;2.20;;;;;;;5.10;91.87;98905.69;5019419;28;20987;-47
2023/01/15 08:55:15;;;;;;;6.53;1.70;;;;;;;5.09;92.16;98920.75;5023450;28;20291;-45
2023/01/15 08:57:41;;;;;;;10.52;2.40;;;;;;;5.14;91.83;98910.78;5020760;28;20180;-44
2023/01/15 09:00:07;;;;;;;9.57;2.10;;;;;;;5.15;91.88;98909.84;5018939;28;20663;-47
2023/01/15 09:02:33;;;;;;;6.57;1.55;;;;;;;5.12;91.81;98895.88;5020658;28;20249;-47
2023/01/15 09:04:58;;;;;;;13.60;2.65;;;;;;;5.09;91.43;98919.88;5019270;28;20204;-46
2023/01/15 09:07:24;;;;;;;10.70;2.15;;;;;;;5.07;91.41;98921.75;5025606;28;20187;-49
2023/01/15 09:09:49;;;;;;;9.55;2.10;;;;;;;5.07;91.13;98913.78;5020115;28;20263;-46
2023/01/15 09:12:15;;;;;;;9.45;2.22;;;;;;;5.09;91.62;98917.25;5018292;28;20678;-45
2023/01/15 09:14:40;;;;;;;7.70;1.83;;;;;;;5.17;91.24;98917.75;5024903;28;20200;-45
2023/01/15 09:17:06;;;;;;;12.65;2.42;;;;;;;5.13;90.96;98916.16;5020887;28;20189;-46
2023/01/15 09:19:31;;;;;;;10.93;1.63;;;;;;;5.16;90.58;98906.28;5022901;28;20183;-47
2023/01/15 09:21:57;;;;;;;10.02;1.83;;;;;;;5.17;90.36;98909.78;5020791;28;20195;-47
2023/01/15 09:24:22;;;;;;;9.73;2.13;;;;;;;5.12;90.39;98915.31;5020177;28;20192;-48
2023/01/15 09:26:51;;;;;;;8.73;2.03;;;;;;;5.17;90.48;98901.81;5023631;28;20540;-45
2023/01/15 09:29:17;;;;;;;9.23;2.17;;;;;;;5.14;89.98;98905.47;5024762;28;20244;-45
2023/01/15 09:31:42;;;;;;;5.18;1.98;;;;;;;5.14;89.90;98900.19;5021207;28;20208;-45
2023/01/15 09:34:09;;;;;;;9.05;1.92;;;;;;;5.22;89.59;98897.16;5021526;28;20451;-47
2023/01/15 09:36:35;;;;;;;9.75;1.70;;;;;;;5.21;89.48;98890.13;5027996;28;20283;-46
2023/01/15 09:39:03;;;;;;;9.85;1.95;;;;;;;5.25;89.05;98896.16;5017190;28;20559;-46
2023/01/15 09:44:44;;;;;;;6.53;1.85;;;;;;;5.16;88.94;98902.75;5021405;28;20215;-46
2023/01/15 09:47:47;;;;;;;8.05;1.98;;;;;;;5.16;88.88;98884.19;5018482;28;20184;-47
2023/01/15 09:50:33;;;;;;;7.43;1.50;;;;;;;5.13;88.55;98889.63;5028251;28;20219;-47
2023/01/15 09:53:27;;;;;;;10.23;1.88;;;;;;;5.17;88.41;98907.13;5017851;28;20207;-46
2023/01/15 09:55:53;;;;;;;7.78;1.65;;;;;;;5.16;88.49;98895.66;5020315;28;20239;-46
2023/01/15 09:58:30;;;;;;;7.55;2.15;;;;;;;5.18;88.51;98900.88;5022510;28;20291;-48
2023/01/15 10:00:55;;;;;;;5.68;1.80;;;;;;;5.18;88.20;98900.03;5017483;28;20622;-48
2023/01/15 10:03:48;;;;;;;10.32;1.98;;;;;;;5.20;87.69;98896.34;5017335;28;20246;-45
2023/01/15 10:06:26;;;;;;;3.55;1.48;;;;;;;5.16;86.84;98865.59;5019395;28;20219;-42
2023/01/15 10:09:23;;;;;;;8.10;1.40;;;;;;;5.15;86.94;98858.56;5020922;28;20686;-42
2023/01/15 10:15:10;;;;;;;6.80;1.50;;;;;;;5.23;85.86;98859.06;5022501;28;20231;-46
2023/01/15 10:17:46;;;;;;;7.55;1.65;;;;;;;5.24;85.09;98854.59;5020732;28;20186;-49
2023/01/15 10:20:13;;;;;;;6.90;1.63;;;;;;;5.29;85.10;98857.88;5018345;28;20310;-46
2023/01/15 10:22:55;;;;;;;5.57;1.95;;;;;;;5.35;85.09;98862.91;5022625;28;20286;-47
2023/01/15 10:25:27;;;;;;;4.43;1.42;;;;;;;5.32;85.05;98840.03;5014081;28;20563;-46
2023/01/15 10:27:56;;;;;;;5.25;1.67;;;;;;;5.36;84.99;98849.56;5019373;28;20195;-45
2023/01/15 10:30:22;;;;;;;7.30;1.85;;;;;;;5.34;83.99;98839.94;5017713;28;20220;-47
2023/01/15 10:32:55;;;;;;;11.90;3.17;;;;;;;5.45;84.14;98853.56;5017818;28;20180;-47
2023/01/15 10:35:46;;;;;;;7.72;1.90;;;;;;;5.40;84.47;98839.66;5017790;28;20714;-48
2023/01/15 10:38:53;;;;;;;7.47;1.92;;;;;;;5.42;84.20;98843.06;5017209;28;20208;-49
2023/01/15 10:41:33;;;;;;;8.45;1.85;;;;;;;5.55;83.22;98803.47;5020344;28;20196;-47
2023/01/15 10:44:12;;;;;;;7.28;1.50;;;;;;;5.59;82.83;98813.03;5023138;28;20757;-47
2023/01/15 10:46:39;;;;;;;5.90;1.70;;;;;;;5.67;82.66;98794.91;5032373;28;20272;-46
2023/01/15 10:49:16;;;;;;;7.20;1.70;;;;;;;5.63;81.98;98760.59;5023117;28;20183;-47
2023/01/15 10:51:49;;;;;;;8.02;1.95;;;;;;;5.51;81.82;98796.59;5015637;28;20207;-48
2023/01/15 10:54:27;;;;;;;8.85;1.75;;;;;;;5.49;81.97;98790.53;5022310;28;20678;-46
2023/01/15 10:57:00;;;;;;;10.77;1.60;;;;;;;5.49;81.42;98807.31;5032181;28;20195;-45
2023/01/15 10:59:48;;;;;;;8.07;1.50;;;;;;;5.45;81.33;98797.78;5018102;28;20697;-45
2023/01/15 11:02:34;;;;;;;4.60;1.05;;;;;;;5.50;81.38;98793.09;5016580;28;20242;-46
2023/01/15 11:05:01;;;;;;;9.43;1.63;;;;;;;5.40;80.87;98780.34;5016142;28;20204;-47
2023/01/15 11:07:34;;;;;;;5.13;1.45;;;;;;;5.48;80.90;98780.84;5017136;28;20716;-47
2023/01/15 11:10:03;;;;;;;9.00;1.95;;;;;;;5.42;81.35;98791.75;5005983;28;20204;-47
2023/01/15 11:20:48;;;;;;;5.90;1.65;;;;;;;5.49;80.41;98767.50;5015958;28;20242;-47
2023/01/15 11:23:17;;;;;;;6.53;1.50;;;;;;;5.45;80.06;98757.09;5016900;28;20675;-46
2023/01/15 11:25:50;;;;;;;6.93;1.75;;;;;;;5.47;79.90;98750.78;5016634;28;20231;-46
2023/01/15 11:28:16;;;;;;;9.82;2.30;;;;;;;5.43;80.28;98751.00;5023167;28;20197;-46
2023/01/15 11:30:51;;;;;;;6.07;1.42;;;;;;;5.39;80.11;98742.31;5020658;28;20238;-48
2023/01/15 11:33:26;;;;;;;9.15;1.85;;;;;;;5.34;80.76;98741.72;5014160;28;20607;-48
2023/01/15 11:35:57;;;;;;;5.90;1.65;;;;;;;5.23;81.33;98731.63;5011614;28;20218;-47
2023/01/15 11:38:24;;;;;;;8.32;2.10;;;;;;;5.26;82.13;98760.66;5025598;28;20187;-47
2023/01/15 11:40:56;;;;;;;8.07;1.30;;;;;;;5.37;82.55;98760.97;5017251;28;20243;-46
2023/01/15 11:52:12;;;;;;;6.75;1.52;;;;;;;5.57;80.49;98724.59;5012093;28;20199;-46
2023/01/15 11:54:50;;;;;;;8.57;1.42;;;;;;;5.51;80.04;98730.19;5023101;28;20189;-47
2023/01/15 11:57:27;;;;;;;7.68;1.40;;;;;;;5.74;79.43;98716.59;5019074;28;20199;-46
2023/01/15 11:59:53;;;;;;;6.32;1.65;;;;;;;5.80;79.65;98703.94;5020200;28;20247;-51
2023/01/15 12:02:46;;;;;;;4.72;1.30;;;;;;;5.75;79.97;98744.00;5020062;28;20238;-46
2023/01/15 12:05:27;;;;;;;6.60;1.45;;;;;;;5.56;80.42;98722.88;5016848;28;20196;-47
2023/01/15 12:08:00;;;;;;;6.32;1.20;;;;;;;5.23;80.84;98705.06;5021381;28;20191;-47
2023/01/15 12:13:48;;;;;;;6.53;1.38;;;;;;;5.40;82.26;98716.63;5022062;28;20203;-45
2023/01/15 12:16:30;;;;;;;4.82;1.45;;;;;;;5.12;83.22;98716.22;5021001;28;20238;-45
2023/01/15 12:19:25;;;;;;;5.10;1.48;;;;;;;4.92;84.20;98716.38;5021393;28;20177;-45
2023/01/15 12:22:18;;;;;;;4.78;1.08;;;;;;;4.88;85.19;98720.09;5021661;28;20193;-46
2023/01/15 12:24:52;;;;;;;4.30;1.25;;;;;;;4.78;85.43;98714.38;5017937;28;20291;-46
2023/01/15 12:27:33;;;;;;;10.57;1.60;;;;;;;4.80;86.24;98719.63;5022660;28;20630;-46
2023/01/15 12:30:12;;;;;;;6.55;1.52;;;;;;;4.94;86.73;98696.78;5034313;28;20355;-46
2023/01/15 12:32:45;;;;;;;14.82;2.10;;;;;;;4.90;86.57;98686.41;5014907;28;20192;-46
2023/01/15 12:35:22;;;;;;;3.83;1.15;;;;;;;4.99;86.56;98679.78;5023985;28;20211;-47
2023/01/15 12:37:54;;;;;;;4.72;1.30;;;;;;;4.95;86.02;98674.59;5020431;28;20185;-46
2023/01/15 12:40:27;;;;;;;6.55;1.65;;;;;;;4.99;85.70;98661.19;5014808;28;20223;-46
2023/01/15 12:45:48;;;;;;;6.70;1.30;;;;;;;5.09;84.97;98670.41;5017321;28;20671;-47
2023/01/15 12:48:21;;;;;;;10.75;1.48;;;;;;;5.14;84.11;98658.63;5024658;28;20651;-47